Terminal Aerodrome Forecast
Issued by NWS Mt. Holly, NJ

Home | Current Version | Previous Version | Text Only | Print | Product List | Glossary On
Versions: 1 2 3 4 5 6 7 8 9 10 11 12 13 14
000
FTUS41 KPHI 240500
TAFRDG
TAF
KRDG 240540Z 2406/2506 15006KT P6SM -RA SCT008 OVC015 WS020/17035KT
      TEMPO 2406/2408 2SM RA BR BKN005
     FM240800 17011KT 4SM -RA BR OVC005 WS020/20045KT
     FM241300 20012G22KT P6SM -SHRA SCT008 OVC015
     FM241700 20014G24KT P6SM SCT020 BKN050
     FM250000 23007KT P6SM BKN250=

USA.gov is the U.S. government's official web portal to all federal, state and local government web resources and services.